createdAt,value
2019-02-24T01:36:36.472Z,36.00
2019-02-24T01:37:27.964Z,35.64
2019-02-24T01:39:31.991Z,35.74
2019-02-24T01:40:32.014Z,35.93
2019-02-24T01:42:36.068Z,36.49
2019-02-24T01:43:36.058Z,37.06
2019-02-24T01:45:40.079Z,38.01
2019-02-24T01:46:40.099Z,38.48
2019-02-24T01:48:33.040Z,38.39
2019-02-24T01:49:33.063Z,38.29
2019-02-24T01:51:37.082Z,38.01
2019-02-24T01:52:37.113Z,37.54
2019-02-24T01:54:41.157Z,38.39
2019-02-24T01:55:41.146Z,37.73
2019-02-24T01:57:45.165Z,37.35
2019-02-24T01:58:45.192Z,37.42
2019-02-24T02:00:49.240Z,38.56
2019-02-24T02:01:49.231Z,39.22
2019-02-24T02:03:53.249Z,37.92
2019-02-24T02:04:53.273Z,38.09
2019-02-24T02:06:57.402Z,37.25
2019-02-24T02:07:57.321Z,37.25
2019-02-24T02:10:01.340Z,36.47
2019-02-24T02:11:01.369Z,36.38
2019-02-24T02:13:05.409Z,36.59
2019-02-24T02:14:05.402Z,36.57
2019-02-24T02:16:09.422Z,37.52
2019-02-24T02:17:09.447Z,37.23
2019-02-24T02:19:13.510Z,36.76
2019-02-24T02:20:13.488Z,37.04
2019-02-24T02:22:17.508Z,37.04
2019-02-24T02:23:17.531Z,37.04
2019-02-24T02:25:21.656Z,36.85
2019-02-24T02:26:21.573Z,36.76
2019-02-24T02:28:14.512Z,37.14
2019-02-24T02:29:14.541Z,36.85
2019-02-24T02:31:18.569Z,37.04
2019-02-24T02:32:18.577Z,36.95
2019-02-24T02:34:22.598Z,37.52
2019-02-24T02:35:22.636Z,37.71
2019-02-24T02:37:26.750Z,38.28
2019-02-24T02:38:26.658Z,38.28
2019-02-24T02:40:30.676Z,38.56
2019-02-24T02:41:30.705Z,38.56
2019-02-24T02:43:34.735Z,38.28
2019-02-24T02:44:34.740Z,38.18
2019-02-24T02:46:38.758Z,37.99
2019-02-24T02:47:38.785Z,37.52
2019-02-24T02:49:42.853Z,37.71
2019-02-24T02:50:42.831Z,37.61
2019-02-24T02:52:46.854Z,37.99
2019-02-24T02:53:46.867Z,38.28
2019-02-24T02:55:51.244Z,38.37
2019-02-24T02:56:50.911Z,38.37
2019-02-24T02:58:54.939Z,38.65
2019-02-24T02:59:54.950Z,38.46
2019-02-24T03:01:59.083Z,38.18
2019-02-24T03:02:58.992Z,37.99
2019-02-24T03:05:03.008Z,38.09
2019-02-24T03:06:03.029Z,37.71
2019-02-24T03:07:55.989Z,37.61
2019-02-24T03:08:55.998Z,37.80
2019-02-24T03:11:00.014Z,38.28
2019-02-24T03:12:00.036Z,38.28
2019-02-24T03:14:04.057Z,38.18
2019-02-24T03:15:04.079Z,37.80
2019-02-24T03:17:08.095Z,37.71
2019-02-24T03:18:08.115Z,37.80
2019-02-24T03:20:12.132Z,37.99
2019-02-24T03:21:12.156Z,37.90
2019-02-24T03:23:16.174Z,38.18
2019-02-24T03:24:16.196Z,37.97
2019-02-24T03:26:20.214Z,38.46
2019-02-24T03:27:20.238Z,38.37
2019-02-24T03:29:24.272Z,38.56
2019-02-24T03:30:24.296Z,38.37
2019-02-24T03:32:28.348Z,38.46
2019-02-24T03:33:28.379Z,38.46
2019-02-24T03:35:32.443Z,39.03
2019-02-24T03:36:32.467Z,38.75
2019-02-24T03:38:25.421Z,39.13
2019-02-24T03:39:25.437Z,39.03
2019-02-24T03:41:29.449Z,39.22
2019-02-24T03:42:29.470Z,39.41
2019-02-24T03:44:33.502Z,39.79
2019-02-24T03:45:33.515Z,39.79
2019-02-24T03:47:37.528Z,39.79
2019-02-24T03:48:37.553Z,39.98
2019-02-24T03:50:41.572Z,39.79
2019-02-24T03:51:41.600Z,39.89
2019-02-24T03:53:45.615Z,39.98
2019-02-24T03:54:45.635Z,39.89
2019-02-24T03:56:49.687Z,40.36
2019-02-24T03:57:49.676Z,40.55
2019-02-24T03:59:51.678Z,39.89
2019-02-24T04:00:51.707Z,39.89
2019-02-24T04:02:53.750Z,40.36
2019-02-24T04:03:53.742Z,40.44
2019-02-24T04:05:55.731Z,40.45
2019-02-24T04:06:55.753Z,40.63
2019-02-24T04:08:57.866Z,40.91
2019-02-24T04:09:57.777Z,40.81
2019-02-24T04:11:59.777Z,40.72
2019-02-24T04:12:59.799Z,40.91
2019-02-24T04:15:01.906Z,40.34
2019-02-24T04:16:01.824Z,40.83
2019-02-24T04:17:53.757Z,40.74
2019-02-24T04:18:53.778Z,40.55
2019-02-24T04:20:55.817Z,40.15
2019-02-24T04:21:55.824Z,40.15
2019-02-24T04:23:57.911Z,39.89
2019-02-24T04:24:57.934Z,39.89
2019-02-24T04:27:00.044Z,39.87
2019-02-24T04:27:59.956Z,39.89
2019-02-24T04:30:02.991Z,39.68
2019-02-24T04:31:03.010Z,39.87
2019-02-24T04:33:05.032Z,39.96
2019-02-24T04:34:05.034Z,39.87
2019-02-24T04:36:07.033Z,39.96
2019-02-24T04:37:07.059Z,40.15
2019-02-24T04:39:09.083Z,40.06
2019-02-24T04:40:09.083Z,39.77
2019-02-24T04:42:11.080Z,39.77
2019-02-24T04:43:11.112Z,39.77
2019-02-24T04:45:13.222Z,39.87
2019-02-24T04:46:13.141Z,39.96
2019-02-24T04:48:05.083Z,40.36
2019-02-24T04:49:05.096Z,40.53
2019-02-24T04:51:07.201Z,40.64
2019-02-24T04:52:07.117Z,40.25
2019-02-24T04:54:09.117Z,40.36
2019-02-24T04:55:09.138Z,40.25
2019-02-24T04:57:11.165Z,40.45
2019-02-24T04:58:11.164Z,40.26
2019-02-24T05:00:13.166Z,40.74
2019-02-24T05:01:13.194Z,41.02
2019-02-24T05:03:15.572Z,42.35
2019-02-24T05:04:15.217Z,42.63
2019-02-24T05:06:17.218Z,42.25
2019-02-24T05:07:17.242Z,41.97
2019-02-24T05:09:19.264Z,41.97
2019-02-24T05:10:19.266Z,41.97
2019-02-24T05:12:21.266Z,41.97
2019-02-24T05:13:21.290Z,42.25
2019-02-24T05:15:13.433Z,42.44
2019-02-24T05:16:13.441Z,42.73
2019-02-24T05:18:05.367Z,43.20
2019-02-24T05:19:05.421Z,43.68
2019-02-24T05:21:07.509Z,43.87
2019-02-24T05:22:07.417Z,43.87
2019-02-24T05:24:09.418Z,44.24
2019-02-24T05:25:09.440Z,44.34
2019-02-24T05:27:11.546Z,43.87
2019-02-24T05:28:11.463Z,43.87
2019-02-24T05:30:13.465Z,43.68
2019-02-24T05:31:13.485Z,43.68
2019-02-24T05:33:15.526Z,43.39
2019-02-24T05:34:15.512Z,43.68
2019-02-24T05:36:17.515Z,43.68
2019-02-24T05:37:17.535Z,44.34
2019-02-24T05:39:19.568Z,44.72
2019-02-24T05:40:19.558Z,44.81
2019-02-24T05:42:21.561Z,45.57
2019-02-24T05:43:21.583Z,45.00
2019-02-24T05:45:23.607Z,45.86
2019-02-24T05:46:23.614Z,45.76
2019-02-24T05:48:15.546Z,45.67
2019-02-24T05:49:15.565Z,45.67
2019-02-24T05:51:17.611Z,45.93
2019-02-24T05:52:17.589Z,46.12
2019-02-24T05:54:19.590Z,46.31
2019-02-24T05:55:19.612Z,46.52
2019-02-24T05:57:21.646Z,46.42
2019-02-24T05:58:21.634Z,46.61
2019-02-24T06:00:23.636Z,46.90
2019-02-24T06:01:23.659Z,46.90
2019-02-24T06:03:25.692Z,46.71
2019-02-24T06:04:25.681Z,46.71
2019-02-24T06:06:27.682Z,46.80
2019-02-24T06:07:27.705Z,46.42
2019-02-24T06:09:29.743Z,46.61
2019-02-24T06:10:29.749Z,46.04
2019-02-24T06:12:31.749Z,46.90
2019-02-24T06:13:31.783Z,46.71
2019-02-24T06:15:34.135Z,46.71
2019-02-24T06:16:33.796Z,46.71
2019-02-24T06:18:25.723Z,47.37
2019-02-24T06:19:25.748Z,47.18
2019-02-24T06:21:27.783Z,46.61
2019-02-24T06:22:27.787Z,46.33
2019-02-24T06:24:29.787Z,46.42
2019-02-24T06:25:29.812Z,46.33
2019-02-24T06:27:31.842Z,47.37
2019-02-24T06:28:31.834Z,46.80
2019-02-24T06:30:33.835Z,46.23
2019-02-24T06:31:33.856Z,46.33
2019-02-24T06:33:35.901Z,47.09
2019-02-24T06:34:35.883Z,47.18
2019-02-24T06:36:37.881Z,47.18
2019-02-24T06:37:37.902Z,46.52
2019-02-24T06:39:39.929Z,46.61
2019-02-24T06:40:39.930Z,46.61
2019-02-24T06:42:41.927Z,46.33
2019-02-24T06:43:41.950Z,46.23
2019-02-24T06:45:44.312Z,46.23
2019-02-24T06:46:43.978Z,45.95
2019-02-24T06:48:35.906Z,45.95
2019-02-24T06:49:35.927Z,46.35
2019-02-24T06:51:38.067Z,45.97
2019-02-24T06:52:37.978Z,45.48
2019-02-24T06:54:40.000Z,45.88
2019-02-24T06:55:40.024Z,45.69
2019-02-24T06:57:42.076Z,45.88
2019-02-24T06:58:42.070Z,45.03
2019-02-24T07:00:44.098Z,45.78
2019-02-24T07:01:44.098Z,45.59
2019-02-24T07:03:46.122Z,45.97
2019-02-24T07:04:46.122Z,46.07
2019-02-24T07:06:48.124Z,45.97
2019-02-24T07:07:48.146Z,45.50
2019-02-24T07:09:50.150Z,45.78
2019-02-24T07:10:50.173Z,45.69
2019-02-24T07:12:52.199Z,44.27
2019-02-24T07:13:52.224Z,43.51
2019-02-24T07:15:54.227Z,43.41
2019-02-24T07:16:54.252Z,43.23
2019-02-24T07:18:56.361Z,43.51
2019-02-24T07:19:56.277Z,43.13
2019-02-24T07:21:58.279Z,42.75
2019-02-24T07:22:58.304Z,42.56
2019-02-24T07:25:00.346Z,42.56
2019-02-24T07:26:00.331Z,42.11
2019-02-24T07:27:52.260Z,41.89
2019-02-24T07:28:52.285Z,42.18
2019-02-24T07:30:54.401Z,41.73
2019-02-24T07:31:54.313Z,41.06
2019-02-24T07:33:56.310Z,41.16
2019-02-24T07:34:56.337Z,41.54
2019-02-24T07:36:58.353Z,41.35
2019-02-24T07:37:58.363Z,41.24
2019-02-24T07:40:00.372Z,41.33
2019-02-24T07:41:00.393Z,41.52
2019-02-24T07:43:02.399Z,41.61
2019-02-24T07:44:02.421Z,41.71
2019-02-24T07:46:04.423Z,41.99
2019-02-24T07:47:04.445Z,41.71
2019-02-24T07:49:06.447Z,42.37
2019-02-24T07:50:06.472Z,42.39
2019-02-24T07:52:08.488Z,41.80
2019-02-24T07:53:08.497Z,42.39
2019-02-24T07:55:10.498Z,41.54
2019-02-24T07:56:10.523Z,41.16
2019-02-24T07:58:02.461Z,40.88
2019-02-24T07:59:02.479Z,40.78
2019-02-24T08:01:04.840Z,40.59
2019-02-24T08:02:04.507Z,40.69
2019-02-24T08:04:06.508Z,41.35
2019-02-24T08:05:06.537Z,41.25
2019-02-24T08:07:08.538Z,40.50
2019-02-24T08:08:16.228Z,40.59
2019-02-24T08:10:10.568Z,40.12
2019-02-24T08:11:10.595Z,39.92
2019-02-24T08:13:12.627Z,39.64
2019-02-24T08:14:12.620Z,39.45
2019-02-24T08:16:14.624Z,39.92
2019-02-24T08:17:14.642Z,40.88
2019-02-24T08:19:16.676Z,42.58
2019-02-24T08:20:16.672Z,42.39
2019-02-24T08:22:18.673Z,40.70
2019-02-24T08:23:18.697Z,40.52
2019-02-24T08:25:20.733Z,40.23
2019-02-24T08:26:20.726Z,40.14
2019-02-24T08:28:12.665Z,39.85
2019-02-24T08:29:12.686Z,39.95
2019-02-24T08:31:15.042Z,39.57
2019-02-24T08:32:14.712Z,39.85
2019-02-24T08:34:16.719Z,39.85
2019-02-24T08:35:16.747Z,39.28
2019-02-24T08:37:18.859Z,39.37
2019-02-24T08:38:18.773Z,39.28
2019-02-24T08:40:20.773Z,38.81
2019-02-24T08:41:20.797Z,38.90
2019-02-24T08:43:22.828Z,39.11
2019-02-24T08:44:22.826Z,39.01
2019-02-24T08:46:24.826Z,38.54
2019-02-24T08:47:24.851Z,38.82
2019-02-24T08:49:26.884Z,39.78
2019-02-24T08:50:26.884Z,39.11
2019-02-24T08:52:28.887Z,38.45
2019-02-24T08:53:28.909Z,38.64
2019-02-24T08:55:30.917Z,38.45
2019-02-24T08:56:30.949Z,38.75
2019-02-24T08:58:22.878Z,38.46
2019-02-24T08:59:22.900Z,38.37
2019-02-24T09:01:24.926Z,38.56
2019-02-24T09:02:24.928Z,38.75
2019-02-24T09:04:26.933Z,38.28
2019-02-24T09:05:26.956Z,37.90
2019-02-24T09:07:28.960Z,37.80
2019-02-24T09:08:28.985Z,37.92
2019-02-24T09:10:31.012Z,37.73
2019-02-24T09:11:31.016Z,37.15
2019-02-24T09:13:33.020Z,36.77
2019-02-24T09:14:33.048Z,36.87
2019-02-24T09:16:35.074Z,36.77
2019-02-24T09:17:35.078Z,36.60
2019-02-24T09:19:37.096Z,35.77
2019-02-24T09:20:37.113Z,34.81
2019-02-24T09:22:39.146Z,32.95
2019-02-24T09:23:39.151Z,32.20
2019-02-24T09:25:41.516Z,29.94
2019-02-24T09:26:41.179Z,28.81
2019-02-24T09:28:33.119Z,27.20
2019-02-24T09:29:33.141Z,26.55
2019-02-24T09:31:35.168Z,24.74
2019-02-24T09:32:35.173Z,24.57
2019-02-24T09:34:37.184Z,23.42
2019-02-24T09:35:37.210Z,23.52
2019-02-24T09:37:40.391Z,22.19
2019-02-24T09:38:40.378Z,21.52
2019-02-24T09:40:44.405Z,21.15
2019-02-24T09:41:44.429Z,21.44
2019-02-24T09:43:48.471Z,21.15
2019-02-24T09:44:48.491Z,21.33
2019-02-24T09:46:52.506Z,21.41
2019-02-24T09:47:52.532Z,21.89
2019-02-24T09:49:56.607Z,22.74
2019-02-24T09:50:56.585Z,23.41
2019-02-24T09:53:00.612Z,23.78
2019-02-24T09:54:00.636Z,23.49
2019-02-24T09:56:04.662Z,24.35
2019-02-24T09:57:04.692Z,23.97
2019-02-24T09:59:08.719Z,24.82
2019-02-24T10:00:08.746Z,23.67
2019-02-24T10:02:12.822Z,24.53
2019-02-24T10:03:12.809Z,25.10
2019-02-24T10:05:16.846Z,24.44
2019-02-24T10:06:16.861Z,23.58
2019-02-24T10:08:09.844Z,23.75
2019-02-24T10:09:09.851Z,24.04
2019-02-24T10:11:13.879Z,23.38
2019-02-24T10:12:13.906Z,23.28
2019-02-24T10:14:17.939Z,24.90
2019-02-24T10:15:17.970Z,24.33
2019-02-24T10:17:21.998Z,23.85
2019-02-24T10:18:22.031Z,23.57
2019-02-24T10:20:26.065Z,23.09
2019-02-24T10:21:26.093Z,23.57
2019-02-24T10:23:30.133Z,25.09
2019-02-24T10:24:30.160Z,24.72
2019-02-24T10:26:34.203Z,24.34
2019-02-24T10:27:34.232Z,24.54
2019-02-24T10:29:38.275Z,23.60
2019-02-24T10:30:38.307Z,23.79
2019-02-24T10:32:42.351Z,22.75
2019-02-24T10:33:42.386Z,22.19
2019-02-24T10:35:46.434Z,19.72
2019-02-24T10:36:46.470Z,19.17
2019-02-24T10:38:39.471Z,16.32
2019-02-24T10:39:39.476Z,14.23
2019-02-24T10:41:43.530Z,11.95
2019-02-24T10:42:43.567Z,10.91
2019-02-24T10:44:47.623Z,7.55
2019-02-24T10:45:47.661Z,6.59
2019-02-24T10:47:51.716Z,6.12
2019-02-24T10:48:51.758Z,4.38
2019-02-24T10:50:55.833Z,4.09
2019-02-24T10:51:55.853Z,4.29
2019-02-24T10:53:59.909Z,3.22
2019-02-24T10:54:59.952Z,3.03
2019-02-24T10:57:04.033Z,1.17
2019-02-24T10:58:04.055Z,1.67
2019-02-24T11:00:08.116Z,0.68
2019-02-24T11:01:08.157Z,0.68
2019-02-24T11:03:12.238Z,0.00
2019-02-24T11:04:12.260Z,0.00
2019-02-24T11:06:16.321Z,0.00
2019-02-24T11:07:16.364Z,0.00
2019-02-24T11:09:20.452Z,0.00
2019-02-24T11:10:20.497Z,0.00
2019-02-24T11:12:24.562Z,0.00
2019-02-24T11:13:24.604Z,0.00
2019-02-24T11:15:28.684Z,0.00
2019-02-24T11:16:28.711Z,0.00
2019-02-24T11:18:21.693Z,0.00
2019-02-24T11:19:21.738Z,0.00
2019-02-24T11:21:25.807Z,0.00
2019-02-24T11:22:25.852Z,0.00
2019-02-24T11:23:25.895Z,0.00
2019-02-24T11:24:25.946Z,0.00
2019-02-24T11:25:25.997Z,0.00
2019-02-24T11:26:26.041Z,0.00
2019-02-24T11:27:26.092Z,0.00
2019-02-24T11:28:26.140Z,0.00
2019-02-24T11:29:26.190Z,0.00
2019-02-24T11:30:26.238Z,0.00
2019-02-24T11:31:26.287Z,0.00
2019-02-24T11:32:26.338Z,0.00
2019-02-24T11:33:26.387Z,0.00
2019-02-24T11:34:26.435Z,0.00
2019-02-24T11:35:26.485Z,0.00
2019-02-24T11:36:26.534Z,0.00
2019-02-24T11:37:26.583Z,0.00
2019-02-24T11:38:26.633Z,0.00
2019-02-24T11:39:26.685Z,0.00
2019-02-24T11:40:26.731Z,0.00
2019-02-24T11:41:26.782Z,0.00
2019-02-24T11:42:26.829Z,0.00
2019-02-24T11:43:26.880Z,0.00
2019-02-24T11:44:26.930Z,0.00
2019-02-24T11:45:26.980Z,0.00
2019-02-24T11:46:27.134Z,0.00
2019-02-24T11:47:27.080Z,0.00
2019-02-24T11:48:27.128Z,0.00
2019-02-24T11:49:27.179Z,0.00
2019-02-24T11:50:27.227Z,0.00
2019-02-24T11:51:27.291Z,0.00
2019-02-24T11:52:27.328Z,0.00
2019-02-24T11:53:27.377Z,0.00
2019-02-24T11:54:27.427Z,0.00
2019-02-24T11:55:27.477Z,0.00
2019-02-24T11:56:27.527Z,0.00
2019-02-24T11:57:27.575Z,0.00
2019-02-24T11:58:27.628Z,0.00
2019-02-24T11:59:27.674Z,0.00
2019-02-24T12:00:27.725Z,0.00
2019-02-24T12:01:27.778Z,0.00
2019-02-24T12:02:34.215Z,0.00
2019-02-24T12:03:27.875Z,0.00
2019-02-24T12:04:27.925Z,0.00
2019-02-24T12:05:27.976Z,0.00
2019-02-24T12:06:28.023Z,0.00
2019-02-24T12:07:28.073Z,0.00
2019-02-24T12:08:28.122Z,0.00
2019-02-24T12:09:28.172Z,0.00
2019-02-24T12:10:28.220Z,0.00
2019-02-24T12:11:28.273Z,0.00
2019-02-24T12:12:28.322Z,0.00
2019-02-24T12:13:28.372Z,0.00
2019-02-24T12:14:28.421Z,0.00
2019-02-24T12:15:28.469Z,0.00
2019-02-24T12:16:28.525Z,0.00
2019-02-24T12:17:28.572Z,0.00
2019-02-24T12:18:28.618Z,0.00
2019-02-24T12:19:28.668Z,0.00
2019-02-24T12:20:28.718Z,0.00
2019-02-24T12:21:28.791Z,0.00
2019-02-24T12:22:28.818Z,0.00
2019-02-24T12:23:28.867Z,0.00
2019-02-24T12:24:28.917Z,0.00
2019-02-24T12:25:28.971Z,0.00
2019-02-24T12:26:29.017Z,0.00
2019-02-24T12:27:29.068Z,0.00
2019-02-24T12:28:29.123Z,0.00
2019-02-24T12:29:29.169Z,0.00
2019-02-24T12:30:29.216Z,0.00
2019-02-24T12:31:29.267Z,0.00
2019-02-24T12:32:29.318Z,0.00
2019-02-24T12:33:29.367Z,0.00
2019-02-24T12:34:29.416Z,0.00
2019-02-24T12:35:29.470Z,0.00
2019-02-24T12:36:29.518Z,0.00
2019-02-24T12:37:29.567Z,0.00
2019-02-24T12:38:29.617Z,0.00
2019-02-24T12:39:29.668Z,0.00
2019-02-24T12:40:29.718Z,0.00
2019-02-24T12:41:29.770Z,0.00
2019-02-24T12:42:29.818Z,0.00
2019-02-24T12:43:29.870Z,0.00
2019-02-24T12:44:29.918Z,0.00
2019-02-24T12:45:29.969Z,0.00
2019-02-24T12:46:30.019Z,0.00
2019-02-24T12:47:30.071Z,0.00
2019-02-24T12:48:30.126Z,0.00
2019-02-24T12:49:30.170Z,0.00
2019-02-24T12:50:30.220Z,0.00
2019-02-24T12:51:30.271Z,0.00
2019-02-24T12:52:30.322Z,0.00
2019-02-24T12:53:30.372Z,0.00
2019-02-24T12:54:30.421Z,0.00
2019-02-24T12:55:30.472Z,0.00
2019-02-24T12:56:30.525Z,0.00
2019-02-24T12:57:30.573Z,0.00
2019-02-24T12:58:30.623Z,0.00
2019-02-24T12:59:30.674Z,0.00
2019-02-24T13:00:30.726Z,0.00
2019-02-24T13:01:30.776Z,0.00
2019-02-24T13:02:30.826Z,0.00
2019-02-24T13:03:30.883Z,0.00
2019-02-24T13:04:30.928Z,0.00
2019-02-24T13:05:30.979Z,0.00
2019-02-24T13:06:31.032Z,0.00
2019-02-24T13:07:31.084Z,0.00
2019-02-24T13:08:31.133Z,0.00
2019-02-24T13:09:31.184Z,0.00
2019-02-24T13:10:31.236Z,0.00
2019-02-24T13:11:31.287Z,0.00
2019-02-24T13:12:31.338Z,0.00
2019-02-24T13:13:31.391Z,0.00
2019-02-24T13:14:31.441Z,0.00
2019-02-24T13:15:31.493Z,0.00
2019-02-24T13:16:31.544Z,0.00
2019-02-24T13:17:31.597Z,0.00
2019-02-24T13:18:31.648Z,0.00
2019-02-24T13:19:31.699Z,0.00
2019-02-24T13:20:31.753Z,0.00
2019-02-24T13:21:31.803Z,0.00
2019-02-24T13:22:31.859Z,0.00
2019-02-24T13:23:31.907Z,0.00
2019-02-24T13:24:31.958Z,0.00
2019-02-24T13:25:32.009Z,0.00
2019-02-24T13:26:32.061Z,0.00
2019-02-24T13:27:32.115Z,0.00
2019-02-24T13:28:32.166Z,0.00
2019-02-24T13:29:32.226Z,0.00
2019-02-24T13:30:32.269Z,0.00
2019-02-24T13:31:32.323Z,0.00
2019-02-24T13:32:32.372Z,0.00
2019-02-24T13:33:32.424Z,0.00
2019-02-24T13:34:32.478Z,0.00
2019-02-24T13:35:32.526Z,0.00
2019-02-24T13:36:32.578Z,0.00
2019-02-24T13:37:32.632Z,0.00
2019-02-24T13:38:32.682Z,0.00
2019-02-24T13:39:32.736Z,0.00
2019-02-24T13:40:32.786Z,0.00
2019-02-24T13:41:32.839Z,0.00
2019-02-24T13:42:32.888Z,0.00
2019-02-24T13:43:32.941Z,0.00
2019-02-24T13:44:32.996Z,0.00
2019-02-24T13:45:33.044Z,0.00
2019-02-24T13:46:33.097Z,0.00
2019-02-24T13:47:33.148Z,0.00
2019-02-24T13:48:33.198Z,0.00
2019-02-24T13:49:33.250Z,0.00
2019-02-24T13:50:33.306Z,0.00
2019-02-24T13:51:33.353Z,0.00
2019-02-24T13:52:33.404Z,0.00
2019-02-24T13:53:33.456Z,0.00
2019-02-24T13:54:33.507Z,0.00
2019-02-24T13:55:33.567Z,0.00
2019-02-24T13:56:33.610Z,0.00
2019-02-24T13:57:33.661Z,0.00
2019-02-24T13:58:33.713Z,0.00
2019-02-24T13:59:33.764Z,0.00
2019-02-24T14:00:33.816Z,0.00
2019-02-24T14:01:33.869Z,0.00
2019-02-24T14:02:33.917Z,0.00
2019-02-24T14:03:33.973Z,0.00
2019-02-24T14:04:34.019Z,0.00
2019-02-24T14:05:34.072Z,0.00
2019-02-24T14:06:34.134Z,0.00
2019-02-24T14:07:34.209Z,0.00
2019-02-24T14:08:34.225Z,0.00
2019-02-24T14:09:34.275Z,0.00
2019-02-24T14:10:34.325Z,0.00
2019-02-24T14:11:34.375Z,0.00
2019-02-24T14:12:34.427Z,0.00
2019-02-24T14:13:34.479Z,0.00
2019-02-24T14:14:34.527Z,0.00
2019-02-24T14:15:34.580Z,0.00
2019-02-24T14:16:34.632Z,0.00
2019-02-24T14:17:34.680Z,0.00
2019-02-24T14:18:34.731Z,0.00
2019-02-24T14:19:34.780Z,0.00
2019-02-24T14:20:34.830Z,0.00
2019-02-24T14:21:34.882Z,0.00
2019-02-24T14:22:34.931Z,0.00
2019-02-24T14:23:34.980Z,0.00
2019-02-24T14:24:35.032Z,0.00
2019-02-24T14:25:35.081Z,0.00
2019-02-24T14:26:35.131Z,0.00
2019-02-24T14:27:35.182Z,0.00
2019-02-24T14:28:35.230Z,0.00
2019-02-24T14:29:35.280Z,0.00
2019-02-24T14:30:35.331Z,0.00
2019-02-24T14:31:35.379Z,0.00
2019-02-24T14:32:35.428Z,0.00
2019-02-24T14:33:35.477Z,0.00
2019-02-24T14:34:35.527Z,0.00
2019-02-24T14:35:35.576Z,0.00
2019-02-24T14:36:35.625Z,0.00
2019-02-24T14:37:35.675Z,0.00
2019-02-24T14:38:35.726Z,0.00
2019-02-24T14:39:35.772Z,0.00
2019-02-24T14:40:35.822Z,0.00
2019-02-24T14:41:35.869Z,0.00
2019-02-24T14:42:35.916Z,0.00
2019-02-24T14:43:35.965Z,0.00
2019-02-24T14:44:36.014Z,0.00
2019-02-24T14:45:36.063Z,0.00
2019-02-24T14:46:36.112Z,0.00
2019-02-24T14:47:36.158Z,0.00
2019-02-24T14:48:36.234Z,0.00
2019-02-24T14:49:36.253Z,0.00
2019-02-24T14:50:36.301Z,0.00
2019-02-24T14:51:36.348Z,0.00
2019-02-24T14:52:36.394Z,0.00
2019-02-24T14:53:36.440Z,0.00
2019-02-24T14:54:36.488Z,0.00
2019-02-24T14:55:36.531Z,0.00
2019-02-24T14:56:36.577Z,0.00
2019-02-24T14:57:36.622Z,0.00
2019-02-24T14:58:36.667Z,0.00
2019-02-24T14:59:36.851Z,0.00
2019-02-24T15:00:36.755Z,0.00
2019-02-24T15:01:36.800Z,0.00
2019-02-24T15:02:42.359Z,0.00
2019-02-24T15:03:36.930Z,0.00
2019-02-24T15:04:36.933Z,0.00
2019-02-24T15:05:36.974Z,0.00
2019-02-24T15:06:37.017Z,0.00
2019-02-24T15:07:37.059Z,0.00
2019-02-24T15:08:37.101Z,0.00
2019-02-24T15:09:37.144Z,0.00
2019-02-24T15:10:37.185Z,0.29
2019-02-24T15:11:37.227Z,0.38
2019-02-24T15:12:37.272Z,0.96
2019-02-24T15:13:37.312Z,1.54
2019-02-24T15:14:37.351Z,1.83
2019-02-24T15:15:37.392Z,2.03
2019-02-24T15:16:37.433Z,2.70
2019-02-24T15:17:37.474Z,2.51
2019-02-24T15:18:37.521Z,2.80
2019-02-24T15:19:37.557Z,2.98
2019-02-24T15:20:37.596Z,3.56
2019-02-24T15:21:37.638Z,3.28
2019-02-24T15:22:37.675Z,3.76
2019-02-24T15:23:37.720Z,3.95
2019-02-24T15:24:37.756Z,3.56
2019-02-24T15:25:37.796Z,3.75
2019-02-24T15:26:37.835Z,4.33
2019-02-24T15:27:37.874Z,3.94
2019-02-24T15:28:37.913Z,4.04
2019-02-24T15:29:37.975Z,4.43
2019-02-24T15:30:37.991Z,4.33
2019-02-24T15:31:38.029Z,4.80
2019-02-24T15:32:38.069Z,5.38
2019-02-24T15:33:38.111Z,5.09
2019-02-24T15:34:38.145Z,5.86
2019-02-24T15:35:38.186Z,5.96
2019-02-24T15:36:38.222Z,6.24
2019-02-24T15:37:38.260Z,6.53
2019-02-24T15:38:38.301Z,6.53
2019-02-24T15:39:38.337Z,7.01
2019-02-24T15:40:38.383Z,7.10
2019-02-24T15:41:38.412Z,7.29
2019-02-24T15:42:38.449Z,7.10
2019-02-24T15:43:38.489Z,7.20
2019-02-24T15:44:38.527Z,7.68
2019-02-24T15:45:38.563Z,8.06
2019-02-24T15:46:38.602Z,7.87
2019-02-24T15:47:38.640Z,8.25
2019-02-24T15:48:38.676Z,7.97
2019-02-24T15:49:38.715Z,8.44
2019-02-24T15:50:38.755Z,8.44
2019-02-24T15:51:38.789Z,8.73
2019-02-24T15:52:38.824Z,8.54
2019-02-24T15:53:38.862Z,8.83
2019-02-24T15:54:38.898Z,9.01
2019-02-24T15:55:38.938Z,8.73
2019-02-24T15:56:38.973Z,8.92
2019-02-24T15:57:39.011Z,8.63
2019-02-24T15:58:46.240Z,8.63
2019-02-24T16:00:43.565Z,8.63
2019-02-24T16:01:43.116Z,8.82
2019-02-24T16:03:46.159Z,8.92
2019-02-24T16:04:46.193Z,8.62
2019-02-24T16:06:49.457Z,9.30
2019-02-24T16:07:49.476Z,9.58
2019-02-24T16:09:42.431Z,9.68
2019-02-24T16:10:42.463Z,9.30
2019-02-24T16:12:46.520Z,9.39
2019-02-24T16:13:46.534Z,9.10
2019-02-24T16:15:50.570Z,9.96
2019-02-24T16:16:50.603Z,9.96
2019-02-24T16:18:53.841Z,10.82
2019-02-24T16:19:53.876Z,10.92
2019-02-24T16:21:57.908Z,10.91
2019-02-24T16:22:57.944Z,11.20
2019-02-24T16:25:01.165Z,11.10
2019-02-24T16:26:01.178Z,11.10
2019-02-24T16:28:04.271Z,11.48
2019-02-24T16:29:04.271Z,11.00
2019-02-24T16:31:08.420Z,11.29
2019-02-24T16:32:08.338Z,11.58
2019-02-24T16:34:12.374Z,11.95
2019-02-24T16:35:12.405Z,12.15
2019-02-24T16:37:15.467Z,12.05
2019-02-24T16:38:15.494Z,12.05
2019-02-24T16:40:18.542Z,12.15
2019-02-24T16:41:18.569Z,12.43
2019-02-24T16:43:20.719Z,12.81
2019-02-24T16:44:20.741Z,13.00
2019-02-24T16:46:23.805Z,12.71
2019-02-24T16:47:23.830Z,12.71
2019-02-24T16:49:16.788Z,12.81
2019-02-24T16:50:16.821Z,12.90
2019-02-24T16:52:18.956Z,13.57
2019-02-24T16:53:18.958Z,13.66
2019-02-24T16:55:22.086Z,13.85
2019-02-24T16:56:22.076Z,14.04
2019-02-24T16:58:25.151Z,14.33
2019-02-24T16:59:25.165Z,14.23
2019-02-24T17:01:28.304Z,14.52
2019-02-24T17:02:28.338Z,14.80
2019-02-24T17:04:31.539Z,14.70
2019-02-24T17:05:31.548Z,15.19
2019-02-24T17:07:34.609Z,15.47
2019-02-24T17:08:34.640Z,15.09
2019-02-24T17:10:36.868Z,15.37
2019-02-24T17:11:36.898Z,14.80
2019-02-24T17:13:40.058Z,14.89
2019-02-24T17:14:40.091Z,15.47
2019-02-24T17:16:43.309Z,15.56
2019-02-24T17:17:43.304Z,15.46
2019-02-24T17:19:35.392Z,15.75
2019-02-24T17:20:35.419Z,16.32
2019-02-24T17:22:37.660Z,16.13
2019-02-24T17:23:37.690Z,16.03
2019-02-24T17:25:40.772Z,16.03
2019-02-24T17:26:40.807Z,15.84
2019-02-24T17:28:42.943Z,16.13
2019-02-24T17:29:42.953Z,16.03
2019-02-24T17:31:45.193Z,16.69
2019-02-24T17:32:45.224Z,17.65
2019-02-24T17:34:47.371Z,17.36
2019-02-24T17:35:47.403Z,17.46
2019-02-24T17:37:51.434Z,17.27
2019-02-24T17:38:51.464Z,17.17
2019-02-24T17:40:54.597Z,17.74
2019-02-24T17:41:54.604Z,18.13
2019-02-24T17:43:57.664Z,18.22
2019-02-24T17:44:57.696Z,18.60
2019-02-24T17:47:00.775Z,19.18
2019-02-24T17:48:00.787Z,19.27
2019-02-24T17:50:02.950Z,19.18
2019-02-24T17:51:02.958Z,19.37
2019-02-24T17:53:06.020Z,19.65
2019-02-24T17:54:06.052Z,19.74
2019-02-24T17:56:10.108Z,19.93
2019-02-24T17:57:10.113Z,20.50
2019-02-24T17:59:02.182Z,20.50
2019-02-24T18:00:02.202Z,20.40
2019-02-24T18:01:02.235Z,20.69
2019-02-24T18:02:02.265Z,20.79
2019-02-24T18:03:02.300Z,20.79
2019-02-24T18:04:02.333Z,20.98
2019-02-24T18:05:02.369Z,21.08
2019-02-24T18:06:02.402Z,20.40
2019-02-24T18:07:02.433Z,20.79
2019-02-24T18:08:02.466Z,20.31
2019-02-24T18:09:02.502Z,20.50
2019-02-24T18:10:02.536Z,20.50
2019-02-24T18:11:02.566Z,20.69
2019-02-24T18:12:02.603Z,20.40
2019-02-24T18:13:02.638Z,20.79
2019-02-24T18:14:02.665Z,20.79
2019-02-24T18:15:02.700Z,21.06
2019-02-24T18:16:02.736Z,20.87
2019-02-24T18:17:02.764Z,21.06
2019-02-24T18:18:02.799Z,21.06
2019-02-24T18:19:02.835Z,21.06
2019-02-24T18:20:02.866Z,21.06
2019-02-24T18:21:02.899Z,21.25
2019-02-24T18:22:02.931Z,21.35
2019-02-24T18:23:02.987Z,21.73
2019-02-24T18:24:02.999Z,21.92
2019-02-24T18:25:03.717Z,21.92
2019-02-24T18:26:03.063Z,21.92
2019-02-24T18:27:03.096Z,22.11
2019-02-24T18:28:03.130Z,22.02
2019-02-24T18:29:03.163Z,22.68
2019-02-24T18:30:03.205Z,23.07
2019-02-24T18:31:03.227Z,23.64
2019-02-24T18:32:03.261Z,22.68
2019-02-24T18:33:03.294Z,23.07
2019-02-24T18:34:03.326Z,22.40
2019-02-24T18:35:03.360Z,22.68
2019-02-24T18:36:03.393Z,22.88
2019-02-24T18:37:03.425Z,22.78
2019-02-24T18:38:03.459Z,22.11
2019-02-24T18:39:03.491Z,22.40